createdAt,value
2019-06-29T00:01:31.423Z,4.40
2019-06-29T00:04:03.951Z,5.20
2019-06-29T00:06:36.173Z,5.27
2019-06-29T00:09:08.406Z,5.40
2019-06-29T00:11:40.683Z,5.20
2019-06-29T00:14:12.941Z,4.30
2019-06-29T00:16:45.200Z,4.53
2019-06-29T00:19:17.389Z,4.40
2019-06-29T00:21:49.713Z,4.97
2019-06-29T00:24:21.926Z,6.67
2019-06-29T00:26:54.262Z,5.90
2019-06-29T00:29:26.514Z,5.30
2019-06-29T00:31:59.788Z,6.57
2019-06-29T00:34:32.014Z,5.40
2019-06-29T00:37:03.577Z,5.63
2019-06-29T00:39:35.783Z,6.27
2019-06-29T00:42:08.109Z,4.50
2019-06-29T00:44:40.343Z,5.40
2019-06-29T00:47:12.691Z,4.77
2019-06-29T00:49:44.960Z,4.97
2019-06-29T00:52:17.232Z,4.18
2019-06-29T00:54:49.427Z,4.43
2019-06-29T00:57:21.659Z,4.47
2019-06-29T00:59:53.898Z,5.07
2019-06-29T01:02:26.108Z,4.93
2019-06-29T01:04:58.429Z,6.27
2019-06-29T01:07:31.107Z,5.80
2019-06-29T01:10:03.482Z,5.53
2019-06-29T01:12:35.732Z,6.10
2019-06-29T01:15:08.680Z,8.83
2019-06-29T01:17:40.963Z,5.87
2019-06-29T01:20:13.258Z,5.10
2019-06-29T01:22:45.446Z,5.03
2019-06-29T01:25:17.689Z,5.77
2019-06-29T01:27:50.075Z,6.63
2019-06-29T01:30:40.788Z,5.43
2019-06-29T01:33:13.004Z,6.07
2019-06-29T01:35:45.219Z,5.45
2019-06-29T01:38:17.507Z,5.40
2019-06-29T01:40:49.695Z,5.43
2019-06-29T01:43:21.941Z,5.30
2019-06-29T01:45:54.231Z,5.83
2019-06-29T01:48:26.531Z,5.90
2019-06-29T01:50:58.796Z,5.83
2019-06-29T01:53:31.091Z,5.30
2019-06-29T01:56:03.299Z,6.10
2019-06-29T01:58:35.519Z,6.10
2019-06-29T02:01:07.781Z,7.57
2019-06-29T02:03:40.022Z,6.77
2019-06-29T02:06:12.212Z,5.73
2019-06-29T02:08:44.887Z,6.50
2019-06-29T02:11:17.087Z,7.00
2019-06-29T02:13:49.308Z,7.10
2019-06-29T02:16:21.455Z,8.00
2019-06-29T02:18:53.979Z,6.87
2019-06-29T02:21:26.146Z,7.43
2019-06-29T02:23:58.386Z,6.40
2019-06-29T02:26:30.578Z,7.77
2019-06-29T02:29:02.807Z,6.97
2019-06-29T02:31:35.004Z,7.93
2019-06-29T02:34:07.269Z,6.47
2019-06-29T02:36:39.471Z,6.03
2019-06-29T02:39:11.665Z,5.63
2019-06-29T02:41:43.876Z,5.83
2019-06-29T02:44:16.108Z,5.80
2019-06-29T02:46:48.357Z,6.17
2019-06-29T02:49:20.611Z,6.10
2019-06-29T02:51:53.109Z,5.83
2019-06-29T02:54:25.334Z,6.87
2019-06-29T02:56:57.560Z,6.13
2019-06-29T02:59:29.877Z,6.93
2019-06-29T03:02:02.034Z,6.50
2019-06-29T03:04:34.276Z,7.43
2019-06-29T03:07:06.484Z,6.33
2019-06-29T03:09:38.761Z,6.23
2019-06-29T03:12:10.992Z,6.30
2019-06-29T03:14:43.229Z,6.43
2019-06-29T03:17:15.413Z,6.57
2019-06-29T03:19:47.694Z,6.83
2019-06-29T03:22:19.900Z,6.97
2019-06-29T03:24:52.380Z,6.60
2019-06-29T03:27:24.635Z,6.32
2019-06-29T03:29:56.919Z,6.93
2019-06-29T03:32:29.107Z,5.93
2019-06-29T03:35:01.376Z,6.97
2019-06-29T03:37:33.574Z,6.53
2019-06-29T03:40:06.276Z,6.70
2019-06-29T03:42:38.459Z,8.13
2019-06-29T03:45:13.522Z,7.77
2019-06-29T03:47:45.785Z,8.33
2019-06-29T03:50:30.078Z,6.67
2019-06-29T03:53:02.272Z,6.77
2019-06-29T03:55:34.533Z,6.35
2019-06-29T03:58:06.728Z,6.63
2019-06-29T04:00:42.651Z,6.50
2019-06-29T04:03:31.738Z,10.10
2019-06-29T04:06:19.936Z,6.67
2019-06-29T04:08:58.514Z,6.20
2019-06-29T04:11:53.330Z,6.50
2019-06-29T04:14:58.998Z,6.67
2019-06-29T04:17:39.970Z,6.20
2019-06-29T04:20:35.064Z,6.43
2019-06-29T04:23:29.488Z,6.63
2019-06-29T04:26:10.093Z,6.77
2019-06-29T04:29:02.572Z,7.03
2019-06-29T04:31:55.339Z,6.10
2019-06-29T04:34:50.848Z,6.43
2019-06-29T04:37:33.894Z,6.40
2019-06-29T04:40:18.424Z,8.57
2019-06-29T04:42:55.822Z,7.70
2019-06-29T04:45:28.629Z,6.60
2019-06-29T04:48:02.994Z,7.00
2019-06-29T04:50:35.392Z,6.90
2019-06-29T04:53:09.693Z,7.03
2019-06-29T04:55:56.970Z,8.47
2019-06-29T04:58:29.675Z,7.30
2019-06-29T05:01:01.983Z,6.60
2019-06-29T05:03:36.191Z,6.97
2019-06-29T05:06:08.512Z,6.80
2019-06-29T05:08:40.993Z,7.30
2019-06-29T05:11:13.861Z,8.40
2019-06-29T05:13:46.501Z,7.23
2019-06-29T05:16:18.991Z,7.63
2019-06-29T05:18:52.270Z,8.03
2019-06-29T05:21:27.959Z,8.37
2019-06-29T05:24:00.278Z,9.27
2019-06-29T05:26:32.537Z,7.37
2019-06-29T05:29:04.869Z,6.57
2019-06-29T05:31:37.259Z,7.97
2019-06-29T05:34:10.661Z,6.63
2019-06-29T05:36:43.119Z,6.62
2019-06-29T05:39:15.566Z,6.53
2019-06-29T05:41:48.021Z,6.70
2019-06-29T05:44:20.327Z,5.70
2019-06-29T05:46:52.715Z,6.33
2019-06-29T05:49:25.038Z,5.77
2019-06-29T05:51:57.384Z,11.47
2019-06-29T05:54:29.770Z,8.43
2019-06-29T05:57:15.983Z,5.93
2019-06-29T05:59:49.165Z,8.97
2019-06-29T06:02:22.276Z,6.00
2019-06-29T06:04:54.572Z,5.77
2019-06-29T06:07:26.961Z,6.27
2019-06-29T06:09:59.742Z,4.63
2019-06-29T06:12:32.154Z,5.67
2019-06-29T06:15:07.574Z,4.47
2019-06-29T06:17:39.938Z,5.23
2019-06-29T06:20:12.397Z,3.90
2019-06-29T06:22:44.698Z,4.70
2019-06-29T06:25:17.037Z,4.10
2019-06-29T06:27:49.343Z,4.43
2019-06-29T06:30:21.669Z,4.03
2019-06-29T06:32:53.992Z,4.97
2019-06-29T06:35:26.320Z,3.73
2019-06-29T06:37:59.198Z,4.10
2019-06-29T06:40:31.464Z,6.20
2019-06-29T06:43:03.783Z,3.80
2019-06-29T06:45:36.039Z,3.73
2019-06-29T06:48:08.355Z,3.90
2019-06-29T06:50:40.632Z,3.90
2019-06-29T06:53:13.896Z,5.87
2019-06-29T06:55:46.320Z,4.53
2019-06-29T06:58:18.658Z,3.83
2019-06-29T07:00:50.987Z,4.47
2019-06-29T07:03:23.353Z,3.80
2019-06-29T07:05:55.615Z,4.03
2019-06-29T07:08:27.933Z,4.20
2019-06-29T07:11:02.212Z,4.57
2019-06-29T07:13:34.852Z,3.90
2019-06-29T07:16:07.108Z,4.27
2019-06-29T07:18:39.419Z,4.70
2019-06-29T07:21:11.933Z,4.70
2019-06-29T07:23:44.332Z,3.20
2019-06-29T07:26:16.579Z,4.40
2019-06-29T07:28:49.256Z,3.90
2019-06-29T07:31:21.568Z,3.40
2019-06-29T07:33:54.185Z,3.50
2019-06-29T07:36:26.904Z,3.93
2019-06-29T07:39:03.814Z,3.40
2019-06-29T07:41:37.655Z,3.70
2019-06-29T07:44:10.439Z,5.27
2019-06-29T07:46:42.757Z,5.03
2019-06-29T07:49:15.805Z,4.27
2019-06-29T07:51:55.337Z,4.03
2019-06-29T07:54:30.257Z,6.10
2019-06-29T07:57:02.525Z,2.83
2019-06-29T07:59:34.952Z,4.73
2019-06-29T08:02:07.304Z,5.90
2019-06-29T08:04:39.652Z,4.60
2019-06-29T08:07:22.049Z,4.17
2019-06-29T08:09:59.265Z,4.73
2019-06-29T08:12:32.027Z,4.80
2019-06-29T08:15:06.601Z,3.40
2019-06-29T08:17:39.076Z,4.80
2019-06-29T08:20:11.869Z,3.73
2019-06-29T08:22:44.181Z,3.80
2019-06-29T08:25:16.538Z,4.87
2019-06-29T08:27:49.108Z,4.43
2019-06-29T08:30:42.640Z,4.17
2019-06-29T08:33:15.250Z,4.00
2019-06-29T08:35:48.598Z,4.30
2019-06-29T08:38:21.298Z,4.40
2019-06-29T08:40:53.710Z,4.20
2019-06-29T08:43:26.025Z,4.10
2019-06-29T08:45:58.349Z,4.40
2019-06-29T08:48:30.726Z,4.80
2019-06-29T08:51:03.355Z,5.13
2019-06-29T08:53:36.800Z,4.30
2019-06-29T08:56:09.154Z,4.27
2019-06-29T08:58:53.483Z,4.50
2019-06-29T09:01:26.480Z,6.53
2019-06-29T09:03:58.719Z,4.60
2019-06-29T09:06:31.004Z,4.73
2019-06-29T09:09:04.435Z,4.23
2019-06-29T09:11:36.727Z,4.00
2019-06-29T09:14:09.061Z,3.60
2019-06-29T09:16:41.598Z,4.37
2019-06-29T09:19:13.892Z,3.90
2019-06-29T09:21:46.192Z,4.00
2019-06-29T09:24:18.564Z,4.77
2019-06-29T09:26:51.090Z,4.63
2019-06-29T09:29:23.371Z,3.83
2019-06-29T09:31:55.661Z,4.55
2019-06-29T09:34:28.304Z,3.50
2019-06-29T09:37:02.148Z,4.13
2019-06-29T09:39:34.540Z,3.90
2019-06-29T09:42:07.761Z,4.10
2019-06-29T09:44:42.129Z,3.57
2019-06-29T09:47:14.825Z,3.17
2019-06-29T09:49:47.496Z,3.63
2019-06-29T09:52:22.056Z,3.93
2019-06-29T09:54:54.616Z,3.60
2019-06-29T09:57:27.418Z,3.30
2019-06-29T10:00:06.632Z,5.10
2019-06-29T10:02:41.720Z,3.10
2019-06-29T10:05:14.859Z,3.23
2019-06-29T10:07:47.404Z,3.67
2019-06-29T10:10:22.301Z,3.13
2019-06-29T10:12:54.959Z,4.23
2019-06-29T10:15:27.521Z,3.50
2019-06-29T10:18:02.222Z,3.20
2019-06-29T10:20:35.888Z,3.05
2019-06-29T10:23:08.166Z,3.60
2019-06-29T10:25:44.297Z,3.53
2019-06-29T10:28:17.231Z,3.93
2019-06-29T10:30:55.085Z,3.45
2019-06-29T10:33:27.853Z,3.07
2019-06-29T10:36:02.291Z,2.80
2019-06-29T10:38:35.386Z,2.40
2019-06-29T10:41:07.816Z,2.67
2019-06-29T10:43:42.226Z,2.50
2019-06-29T10:46:14.663Z,3.90
2019-06-29T10:48:47.056Z,2.97
2019-06-29T10:51:21.625Z,3.00
2019-06-29T10:54:01.712Z,2.87
2019-06-29T10:56:42.248Z,4.50
2019-06-29T10:59:17.025Z,4.67
2019-06-29T11:01:51.109Z,2.97
2019-06-29T11:04:28.082Z,2.50
2019-06-29T11:07:04.019Z,2.80
2019-06-29T11:09:41.089Z,2.80
2019-06-29T11:12:17.662Z,3.43
2019-06-29T11:14:56.618Z,3.37
2019-06-29T11:17:32.294Z,3.43
2019-06-29T11:20:06.681Z,2.60
2019-06-29T11:22:41.723Z,2.57
2019-06-29T11:25:15.796Z,4.07
2019-06-29T11:28:07.867Z,3.37
2019-06-29T11:30:53.798Z,3.47
2019-06-29T11:33:28.162Z,2.90
2019-06-29T11:36:08.034Z,3.40
2019-06-29T11:39:03.842Z,3.30
2019-06-29T11:42:32.064Z,3.07
2019-06-29T11:45:11.454Z,2.73
2019-06-29T11:47:58.765Z,3.40
2019-06-29T11:50:42.295Z,3.97
2019-06-29T11:53:22.289Z,2.67
2019-06-29T11:56:27.379Z,2.83
2019-06-29T11:59:14.820Z,3.20
2019-06-29T12:01:52.345Z,3.37
2019-06-29T12:05:11.404Z,4.87
2019-06-29T12:08:02.879Z,3.13
2019-06-29T12:10:58.974Z,3.07
2019-06-29T12:13:41.186Z,3.10
2019-06-29T12:16:22.468Z,4.05
2019-06-29T12:18:56.931Z,2.93
2019-06-29T12:21:31.810Z,2.62
2019-06-29T12:24:04.947Z,3.33
2019-06-29T12:26:37.374Z,2.80
2019-06-29T12:29:14.348Z,3.00
2019-06-29T12:31:47.036Z,3.03
2019-06-29T12:34:19.280Z,2.70
2019-06-29T12:36:51.543Z,2.70
2019-06-29T12:39:24.100Z,3.20
2019-06-29T12:41:56.624Z,2.50
2019-06-29T12:44:33.361Z,3.00
2019-06-29T12:47:08.013Z,2.77
2019-06-29T12:49:42.271Z,2.40
2019-06-29T12:52:15.055Z,2.90
2019-06-29T12:54:51.993Z,2.90
2019-06-29T12:57:44.858Z,3.62
2019-06-29T13:00:19.624Z,3.13
2019-06-29T13:02:52.359Z,2.60
2019-06-29T13:05:25.249Z,3.03
2019-06-29T13:07:57.715Z,2.63
2019-06-29T13:10:30.191Z,2.50
2019-06-29T13:13:03.089Z,3.03
2019-06-29T13:15:35.561Z,2.45
2019-06-29T13:18:08.502Z,2.53
2019-06-29T13:20:42.147Z,2.47
2019-06-29T13:23:15.027Z,2.93
2019-06-29T13:25:48.185Z,2.40
2019-06-29T13:28:21.445Z,4.20
2019-06-29T13:30:53.818Z,2.90
2019-06-29T13:33:26.707Z,2.63
2019-06-29T13:35:59.476Z,2.60
2019-06-29T13:38:32.037Z,2.87
2019-06-29T13:41:05.539Z,3.80
2019-06-29T13:43:41.073Z,3.27
2019-06-29T13:46:15.303Z,2.65
2019-06-29T13:48:48.871Z,2.73
2019-06-29T13:51:21.477Z,2.80
2019-06-29T13:53:56.673Z,2.60
2019-06-29T13:56:29.093Z,2.50
2019-06-29T13:59:01.415Z,2.90
2019-06-29T14:01:33.984Z,2.47
2019-06-29T14:04:06.471Z,2.70
2019-06-29T14:06:45.650Z,2.47
2019-06-29T14:09:29.717Z,3.80
2019-06-29T14:12:10.390Z,2.90
2019-06-29T14:14:42.676Z,2.70
2019-06-29T14:17:15.079Z,3.20
2019-06-29T14:19:48.045Z,3.07
2019-06-29T14:22:20.593Z,3.93
2019-06-29T14:24:56.772Z,2.87
2019-06-29T14:27:41.086Z,2.50
2019-06-29T14:30:18.971Z,2.50
2019-06-29T14:32:51.601Z,2.30
2019-06-29T14:35:26.356Z,3.10
2019-06-29T14:37:59.002Z,3.10
2019-06-29T14:40:32.897Z,2.90
2019-06-29T14:43:05.728Z,3.77
2019-06-29T14:45:41.732Z,2.85
2019-06-29T14:48:14.042Z,3.10
2019-06-29T14:50:46.334Z,3.00
2019-06-29T14:53:18.907Z,2.50
2019-06-29T14:55:51.579Z,2.60
2019-06-29T14:58:26.063Z,2.80
2019-06-29T15:00:58.783Z,3.47
2019-06-29T15:03:31.988Z,2.80
2019-06-29T15:06:04.299Z,2.63
2019-06-29T15:08:36.992Z,2.70
2019-06-29T15:11:09.628Z,3.00
2019-06-29T15:13:41.997Z,2.50
2019-06-29T15:16:19.818Z,2.60
2019-06-29T15:19:02.397Z,2.70
2019-06-29T15:21:37.932Z,2.60
2019-06-29T15:24:10.288Z,2.60
2019-06-29T15:26:42.613Z,2.70
2019-06-29T15:29:14.935Z,2.80
2019-06-29T15:31:47.317Z,2.60
2019-06-29T15:34:20.720Z,3.07
2019-06-29T15:39:22.272Z,2.95
2019-06-29T15:41:54.564Z,3.10
2019-06-29T15:44:26.930Z,2.60
2019-06-29T15:46:59.310Z,2.60
2019-06-29T15:49:31.968Z,2.67
2019-06-29T15:52:04.371Z,3.37
2019-06-29T15:54:36.741Z,3.30
2019-06-29T15:57:08.985Z,2.60
2019-06-29T15:59:43.882Z,3.10
2019-06-29T16:02:17.307Z,3.10
2019-06-29T16:04:50.276Z,2.60
2019-06-29T16:07:22.069Z,2.90
2019-06-29T16:09:54.549Z,2.40
2019-06-29T16:12:26.934Z,2.73
2019-06-29T16:14:59.283Z,2.43
2019-06-29T16:17:32.239Z,2.40
2019-06-29T16:20:05.048Z,2.37
2019-06-29T16:22:37.315Z,3.13
2019-06-29T16:25:09.693Z,2.50
2019-06-29T16:27:41.961Z,2.42
2019-06-29T16:30:16.258Z,2.57
2019-06-29T16:32:48.616Z,3.50
2019-06-29T16:35:20.960Z,3.33
2019-06-29T16:37:54.443Z,2.33
2019-06-29T16:40:27.026Z,3.03
2019-06-29T16:42:59.667Z,2.60
2019-06-29T16:45:32.021Z,2.70
2019-06-29T16:48:04.293Z,4.03
2019-06-29T16:50:36.656Z,2.57
2019-06-29T16:53:08.875Z,3.57
2019-06-29T16:55:41.750Z,2.87
2019-06-29T16:58:14.372Z,2.60
2019-06-29T17:00:46.793Z,2.27
2019-06-29T17:03:19.269Z,3.07
2019-06-29T17:05:51.732Z,2.57
2019-06-29T17:08:27.433Z,2.33
2019-06-29T17:11:02.775Z,2.65
2019-06-29T17:13:35.235Z,2.33
2019-06-29T17:16:07.716Z,2.80
2019-06-29T17:18:40.608Z,2.37
2019-06-29T17:21:13.983Z,2.20
2019-06-29T17:23:46.802Z,2.50
2019-06-29T17:26:19.505Z,2.73
2019-06-29T17:28:51.810Z,1.90
2019-06-29T17:31:24.678Z,2.63
2019-06-29T17:34:03.823Z,3.20
2019-06-29T17:36:47.804Z,3.50
2019-06-29T17:39:23.138Z,3.43
2019-06-29T17:41:56.136Z,2.20
2019-06-29T17:44:28.542Z,2.93
2019-06-29T17:47:00.181Z,2.53
2019-06-29T17:49:32.508Z,2.23
2019-06-29T17:52:04.844Z,2.00
2019-06-29T17:54:37.211Z,2.20
2019-06-29T17:57:11.291Z,1.97
2019-06-29T17:59:43.967Z,2.20
2019-06-29T18:02:16.399Z,2.43
2019-06-29T18:04:49.740Z,2.10
2019-06-29T18:07:22.580Z,3.37
2019-06-29T18:09:55.159Z,2.30
2019-06-29T18:12:27.676Z,2.17
2019-06-29T18:15:00.392Z,2.60
2019-06-29T18:17:47.575Z,2.50
2019-06-29T18:20:23.526Z,3.33
2019-06-29T18:22:55.888Z,5.27
2019-06-29T18:25:29.012Z,2.90
2019-06-29T18:28:01.584Z,2.83
2019-06-29T18:30:33.971Z,2.73
2019-06-29T18:33:07.129Z,2.50
2019-06-29T18:35:39.668Z,3.67
2019-06-29T18:38:12.670Z,2.47
2019-06-29T18:40:46.639Z,2.43
2019-06-29T18:43:19.387Z,2.27
2019-06-29T18:45:51.734Z,2.92
2019-06-29T18:48:24.071Z,2.67
2019-06-29T18:50:56.537Z,2.60
2019-06-29T18:53:29.680Z,2.30
2019-06-29T18:56:02.130Z,2.60
2019-06-29T18:58:34.530Z,3.20
2019-06-29T19:01:06.967Z,2.40
2019-06-29T19:03:39.417Z,2.87
2019-06-29T19:06:11.804Z,3.00
2019-06-29T19:08:44.152Z,3.63
2019-06-29T19:11:16.618Z,2.80
2019-06-29T19:13:49.004Z,2.87
2019-06-29T19:16:22.381Z,2.90
2019-06-29T19:19:00.872Z,2.53
2019-06-29T19:21:34.018Z,3.73
2019-06-29T19:24:07.369Z,4.00
2019-06-29T19:26:39.919Z,3.13
2019-06-29T19:29:12.265Z,3.17
2019-06-29T19:31:44.625Z,3.40
2019-06-29T19:34:16.970Z,3.87
2019-06-29T19:37:00.994Z,3.23
2019-06-29T19:39:42.672Z,2.60
2019-06-29T19:42:15.217Z,3.10
2019-06-29T19:44:49.107Z,4.73
2019-06-29T19:47:21.580Z,2.83
2019-06-29T19:49:53.974Z,4.00
2019-06-29T19:52:26.387Z,3.37
2019-06-29T19:55:03.743Z,3.13
2019-06-29T19:57:36.128Z,3.13
2019-06-29T20:00:13.799Z,2.60
2019-06-29T20:02:46.585Z,3.10
2019-06-29T20:05:21.886Z,5.00
2019-06-29T20:07:54.281Z,3.03
2019-06-29T20:10:26.761Z,3.10
2019-06-29T20:12:59.264Z,3.37
2019-06-29T20:15:35.285Z,3.53
2019-06-29T20:18:07.736Z,3.10
2019-06-29T20:20:46.792Z,2.60
2019-06-29T20:23:21.189Z,2.90
2019-06-29T20:25:54.277Z,2.70
2019-06-29T20:28:29.045Z,3.43
2019-06-29T20:31:02.516Z,4.10
2019-06-29T20:33:35.019Z,4.70
2019-06-29T20:36:09.816Z,3.07
2019-06-29T20:38:48.015Z,3.00
2019-06-29T20:41:24.688Z,2.73
2019-06-29T20:44:10.262Z,2.80
2019-06-29T20:46:42.728Z,3.57
2019-06-29T20:49:24.244Z,2.67
2019-06-29T20:51:56.906Z,3.13
2019-06-29T20:54:36.389Z,3.57
2019-06-29T20:57:09.249Z,3.93
2019-06-29T20:59:59.912Z,3.60
2019-06-29T21:02:41.932Z,3.20
2019-06-29T21:05:15.138Z,3.60
2019-06-29T21:07:47.622Z,4.00
2019-06-29T21:10:22.453Z,3.37
2019-06-29T21:12:57.775Z,2.80
2019-06-29T21:15:30.180Z,3.30
2019-06-29T21:18:02.556Z,3.03
2019-06-29T21:20:34.945Z,3.90
2019-06-29T21:23:07.303Z,4.17
2019-06-29T21:25:49.932Z,4.60
2019-06-29T21:28:25.934Z,3.97
2019-06-29T21:31:02.654Z,2.80
2019-06-29T21:33:55.750Z,2.90
2019-06-29T21:36:29.657Z,4.73
2019-06-29T21:39:02.026Z,3.23
2019-06-29T21:41:35.634Z,4.07
2019-06-29T21:44:08.112Z,3.00
2019-06-29T21:46:47.025Z,5.43
2019-06-29T21:49:22.099Z,3.00
2019-06-29T21:51:56.234Z,3.00
2019-06-29T21:54:31.939Z,3.20
2019-06-29T21:57:05.234Z,3.30
2019-06-29T21:59:37.791Z,3.00
2019-06-29T22:02:10.207Z,3.10
2019-06-29T22:04:42.830Z,2.93
2019-06-29T22:07:15.151Z,4.67
2019-06-29T22:09:47.452Z,3.30
2019-06-29T22:12:19.621Z,3.33
2019-06-29T22:14:52.095Z,3.20
2019-06-29T22:17:24.503Z,3.87
2019-06-29T22:19:56.786Z,3.27
2019-06-29T22:22:29.239Z,3.45
2019-06-29T22:25:01.683Z,4.43
2019-06-29T22:27:33.975Z,3.67
2019-06-29T22:30:09.231Z,5.00
2019-06-29T22:32:56.249Z,3.93
2019-06-29T22:35:29.559Z,6.30
2019-06-29T22:38:01.940Z,3.73
2019-06-29T22:40:34.428Z,3.30
2019-06-29T22:43:06.830Z,3.43
2019-06-29T22:45:39.114Z,4.77
2019-06-29T22:48:11.420Z,3.97
2019-06-29T22:50:43.624Z,3.43
2019-06-29T22:53:15.940Z,3.58
2019-06-29T22:55:48.169Z,4.83
2019-06-29T22:58:20.555Z,3.30
2019-06-29T23:00:52.797Z,3.40
2019-06-29T23:03:25.138Z,4.47
2019-06-29T23:05:57.372Z,3.67
2019-06-29T23:08:29.769Z,3.57
2019-06-29T23:11:02.052Z,3.67
2019-06-29T23:13:35.188Z,3.25
2019-06-29T23:16:07.558Z,3.40
2019-06-29T23:18:39.919Z,3.20
2019-06-29T23:21:12.156Z,3.70
2019-06-29T23:23:44.829Z,3.00
2019-06-29T23:26:17.034Z,3.43
2019-06-29T23:28:49.353Z,3.80
2019-06-29T23:31:21.602Z,3.70
2019-06-29T23:33:54.021Z,3.43
2019-06-29T23:36:26.209Z,4.87
2019-06-29T23:38:58.504Z,3.93
2019-06-29T23:41:30.806Z,3.50
2019-06-29T23:44:03.169Z,3.13
2019-06-29T23:46:35.385Z,5.07
2019-06-29T23:49:07.756Z,3.80
2019-06-29T23:51:39.939Z,3.42
2019-06-29T23:54:12.191Z,5.37
2019-06-29T23:56:44.492Z,3.37
2019-06-29T23:59:16.754Z,5.77
